Time;durP1;ratioP1;P1;durP2;ratioP2;P2;SDS_P1;SDS_P2;PMS_P1;PMS_P2;Temp;Humidity;BMP_temperature;BMP_pressure;BME280_temperature;BME280_humidity;BME280_pressure;Samples;Min_cycle;Max_cycle;Signal;HPM_P1;HPM_P2
2021/06/09 00:03:57;;;;;;;6.90;6.33;;;;;;;17.77;100.00;100622.48;259526;1095;114778;-71
2021/06/09 00:09:07;;;;;;;7.80;6.90;;;;;;;17.58;100.00;100626.41;258221;1095;114594;-69
2021/06/09 00:14:10;;;;;;;8.25;7.43;;;;;;;17.26;100.00;100615.03;258299;1095;114551;-70
2021/06/09 00:19:13;;;;;;;7.85;7.25;;;;;;;17.16;100.00;100614.77;258157;1096;114981;-70
2021/06/09 00:24:25;;;;;;;8.43;7.73;;;;;;;17.22;100.00;100614.36;258320;1095;114765;-72
2021/06/09 00:29:46;;;;;;;8.90;7.18;;;;;;;17.09;100.00;100608.89;258087;1093;114658;-69
2021/06/09 00:34:49;;;;;;;8.05;7.23;;;;;;;17.05;100.00;100612.76;256631;1100;114788;-70
2021/06/09 00:39:51;;;;;;;7.78;7.18;;;;;;;16.87;100.00;100614.75;257816;1094;114635;-69
2021/06/09 00:44:54;;;;;;;8.38;7.58;;;;;;;16.70;100.00;100607.73;257033;1096;114860;-71
2021/06/09 00:55:30;;;;;;;9.23;8.37;;;;;;;16.36;100.00;100613.37;258019;1098;115013;-73
2021/06/09 01:00:35;;;;;;;8.50;7.78;;;;;;;16.33;100.00;100610.88;258020;1100;118074;-73
2021/06/09 01:05:40;;;;;;;7.68;7.13;;;;;;;16.37;100.00;100617.79;256635;1100;114919;-71
2021/06/09 01:10:50;;;;;;;8.25;7.33;;;;;;;16.12;100.00;100615.71;258432;1099;114925;-71
2021/06/09 01:15:52;;;;;;;8.40;7.70;;;;;;;16.05;100.00;100623.30;257031;1099;114691;-71
2021/06/09 01:20:57;;;;;;;9.13;8.13;;;;;;;16.10;100.00;100617.66;258062;1098;114964;-70
2021/06/09 01:26:09;;;;;;;8.23;7.53;;;;;;;16.13;100.00;100613.91;259873;1096;114815;-72
2021/06/09 01:31:16;;;;;;;10.28;9.33;;;;;;;15.99;100.00;100618.29;257948;1100;115102;-71
2021/06/09 01:36:24;;;;;;;9.53;8.68;;;;;;;15.97;100.00;100614.81;256725;1098;114781;-65
2021/06/09 01:41:40;;;;;;;9.15;8.30;;;;;;;16.20;100.00;100620.66;257488;1098;114948;-70
2021/06/09 01:46:46;;;;;;;9.45;8.55;;;;;;;16.13;100.00;100635.42;257468;1099;114672;-73
2021/06/09 01:51:51;;;;;;;9.18;8.25;;;;;;;16.11;100.00;100638.17;256567;1098;116940;-71
2021/06/09 01:56:54;;;;;;;8.90;8.20;;;;;;;15.93;100.00;100641.02;256475;1098;114948;-70
2021/06/09 02:02:00;;;;;;;8.97;7.80;;;;;;;15.64;100.00;100633.73;256855;1098;114545;-70
2021/06/09 02:07:02;;;;;;;9.85;8.95;;;;;;;15.51;100.00;100641.62;256037;1098;115006;-70
2021/06/09 02:12:08;;;;;;;12.88;8.63;;;;;;;15.67;100.00;100653.23;257716;1099;114920;-71
2021/06/09 02:17:14;;;;;;;8.88;8.00;;;;;;;15.61;100.00;100645.53;258223;1099;115323;-71
2021/06/09 02:22:17;;;;;;;10.80;7.80;;;;;;;15.61;100.00;100651.75;257281;1097;115398;-70
2021/06/09 02:27:27;;;;;;;9.15;8.05;;;;;;;15.46;100.00;100648.13;257378;1098;115450;-71
2021/06/09 02:32:31;;;;;;;9.10;8.20;;;;;;;15.31;100.00;100654.36;257770;1097;115243;-72
2021/06/09 02:37:33;;;;;;;9.03;8.27;;;;;;;15.35;100.00;100647.00;256668;1100;114921;-69
2021/06/09 02:42:38;;;;;;;10.33;8.45;;;;;;;15.27;100.00;100642.06;257224;1098;115107;-70
2021/06/09 02:47:46;;;;;;;10.23;8.28;;;;;;;15.27;100.00;100642.06;257778;1097;115363;-71
2021/06/09 02:53:02;;;;;;;8.30;7.50;;;;;;;15.19;100.00;100646.99;257598;1100;115268;-70
2021/06/09 02:58:34;;;;;;;9.63;8.75;;;;;;;15.26;100.00;100640.33;256879;1100;115026;-70
2021/06/09 03:03:36;;;;;;;10.30;9.08;;;;;;;15.33;100.00;100647.09;257007;1098;114593;-72
2021/06/09 03:08:58;;;;;;;9.20;8.40;;;;;;;15.38;100.00;100653.06;257051;1099;114864;-73
2021/06/09 03:19:41;;;;;;;9.80;8.77;;;;;;;15.27;100.00;100644.75;257233;1098;115532;-71
2021/06/09 03:24:48;;;;;;;9.00;8.10;;;;;;;15.28;100.00;100638.44;257524;1099;115048;-73
2021/06/09 03:30:09;;;;;;;9.98;9.20;;;;;;;15.29;100.00;100632.12;257035;1098;114745;-69
2021/06/09 03:35:37;;;;;;;10.67;9.50;;;;;;;15.28;100.00;100633.91;256513;1099;114821;-70
2021/06/09 03:40:43;;;;;;;10.18;9.28;;;;;;;15.23;100.00;100622.58;256471;1099;114787;-70
2021/06/09 03:45:51;;;;;;;12.13;10.77;;;;;;;15.30;100.00;100625.77;257482;1099;114598;-71
2021/06/09 03:51:00;;;;;;;11.35;10.25;;;;;;;15.48;100.00;100633.75;258687;1099;116000;-74
2021/06/09 03:56:08;;;;;;;9.58;8.63;;;;;;;15.65;100.00;100630.95;259683;1095;115365;-74
2021/06/09 04:01:12;;;;;;;9.58;8.60;;;;;;;15.74;100.00;100643.02;257339;1098;114541;-70
2021/06/09 04:06:18;;;;;;;10.33;9.35;;;;;;;15.89;100.00;100641.28;258052;1098;115053;-71
2021/06/09 04:11:27;;;;;;;9.53;8.63;;;;;;;16.17;100.00;100650.41;256066;1099;115117;-71
2021/06/09 04:16:36;;;;;;;8.93;8.13;;;;;;;16.12;100.00;100649.82;258026;1099;114683;-71
2021/06/09 04:21:38;;;;;;;;;;;;;;;16.16;100.00;100651.36;257045;1099;114990;-73
2021/06/09 04:26:41;;;;;;;9.55;8.58;;;;;;;16.33;100.00;100653.03;257190;1100;103044;-72
2021/06/09 04:31:44;;;;;;;10.07;7.67;;;;;;;16.52;100.00;100668.94;257917;1100;114888;-70
2021/06/09 04:36:52;;;;;;;9.80;7.88;;;;;;;16.59;100.00;100659.53;257535;1100;115566;-70
2021/06/09 04:41:57;;;;;;;8.35;7.65;;;;;;;16.51;100.00;100660.02;257043;1100;114984;-72
2021/06/09 04:47:01;;;;;;;;;;;;;;;16.50;100.00;100663.66;258149;1099;114808;-68
2021/06/09 04:52:14;;;;;;;8.57;7.53;;;;;;;16.55;100.00;100661.55;257177;1099;103189;-70
2021/06/09 04:57:17;;;;;;;8.33;7.63;;;;;;;16.62;100.00;100669.24;256609;1099;115223;-69
2021/06/09 05:02:25;;;;;;;8.18;7.43;;;;;;;16.76;100.00;100665.72;256242;1099;115704;-72
2021/06/09 05:12:42;;;;;;;7.45;6.48;;;;;;;16.91;100.00;100667.47;256345;1098;114643;-71
2021/06/09 05:17:46;;;;;;;7.33;6.63;;;;;;;17.06;100.00;100662.12;257950;1099;114613;-70
2021/06/09 05:23:07;;;;;;;9.98;6.50;;;;;;;17.07;100.00;100662.02;258089;1099;114525;-71
2021/06/09 05:28:13;;;;;;;8.08;6.40;;;;;;;17.13;100.00;100663.42;256759;1098;114860;-71
2021/06/09 05:33:17;;;;;;;9.55;6.60;;;;;;;17.27;100.00;100657.17;257580;1098;114738;-70
2021/06/09 05:38:27;;;;;;;7.53;6.83;;;;;;;17.29;100.00;100650.72;257192;1098;114958;-73
2021/06/09 05:43:33;;;;;;;6.45;5.85;;;;;;;17.33;100.00;100652.27;256035;1100;114808;-70
2021/06/09 05:48:43;;;;;;;8.80;6.15;;;;;;;17.36;100.00;100654.75;257733;1098;115131;-74
2021/06/09 05:53:53;;;;;;;6.63;6.03;;;;;;;17.46;100.00;100646.08;256267;1099;114649;-70
2021/06/09 05:58:55;;;;;;;7.68;6.50;;;;;;;17.50;100.00;100652.98;257280;1098;115153;-69
2021/06/09 06:03:59;;;;;;;8.60;6.70;;;;;;;17.63;100.00;100645.83;257689;1098;114933;-70
2021/06/09 06:09:01;;;;;;;9.28;8.38;;;;;;;17.81;100.00;100659.08;256794;1098;115131;-70
2021/06/09 06:14:06;;;;;;;7.23;6.30;;;;;;;17.84;100.00;100658.86;256802;1099;115127;-69
2021/06/09 06:19:08;;;;;;;6.05;5.50;;;;;;;17.88;100.00;100663.09;256756;1098;114950;-70
2021/06/09 06:24:12;;;;;;;5.43;4.93;;;;;;;17.94;100.00;100659.10;257710;1098;115315;-70
2021/06/09 06:29:14;;;;;;;5.20;4.80;;;;;;;17.97;100.00;100653.55;257417;1098;114921;-70
2021/06/09 06:34:20;;;;;;;8.50;6.65;;;;;;;17.99;100.00;100657.02;257979;1097;114611;-60
2021/06/09 06:39:31;;;;;;;5.00;4.60;;;;;;;18.05;100.00;100650.33;257191;1100;114819;-71
2021/06/09 06:44:42;;;;;;;5.90;5.40;;;;;;;18.16;100.00;100653.17;256561;1099;115215;-70
2021/06/09 06:49:50;;;;;;;7.20;4.50;;;;;;;18.30;100.00;100657.62;256513;1099;115005;-70
2021/06/09 06:55:05;;;;;;;4.68;4.30;;;;;;;18.34;100.00;100671.77;258082;1099;114717;-72
2021/06/09 07:00:14;;;;;;;5.93;4.00;;;;;;;18.39;100.00;100661.55;256592;1099;114499;-70
2021/06/09 07:05:21;;;;;;;4.90;4.27;;;;;;;18.57;100.00;100662.95;257534;1097;115154;-70
2021/06/09 07:10:24;;;;;;;7.20;6.48;;;;;;;18.67;100.00;100667.73;257130;1099;114613;-70
2021/06/09 07:15:29;;;;;;;5.18;4.75;;;;;;;18.73;100.00;100678.09;257123;1098;114605;-72
2021/06/09 07:20:37;;;;;;;4.58;4.18;;;;;;;18.80;100.00;100671.30;258421;1099;114631;-71
2021/06/09 07:25:39;;;;;;;4.30;3.88;;;;;;;19.12;100.00;100668.16;257439;1098;114525;-70
2021/06/09 07:30:41;;;;;;;7.07;6.37;;;;;;;19.32;100.00;100676.66;258442;1098;114971;-71
2021/06/09 07:41:03;;;;;;;3.95;3.60;;;;;;;19.26;100.00;100669.88;256472;1098;114791;-71
2021/06/09 07:46:19;;;;;;;4.18;3.73;;;;;;;19.23;100.00;100670.97;256501;1099;115240;-69
2021/06/09 07:51:30;;;;;;;5.88;5.40;;;;;;;19.26;99.07;100676.14;257972;1098;116305;-73
2021/06/09 07:56:40;;;;;;;6.80;5.53;;;;;;;19.15;100.00;100670.66;256410;1099;114837;-68
2021/06/09 08:01:51;;;;;;;4.90;4.18;;;;;;;19.35;97.01;100657.53;256093;1100;115047;-75
2021/06/09 08:06:53;;;;;;;4.68;3.83;;;;;;;19.32;99.37;100668.55;255247;1098;114532;-70
2021/06/09 08:11:59;;;;;;;6.25;3.63;;;;;;;19.43;96.15;100665.95;256271;1100;114730;-71
2021/06/09 08:17:01;;;;;;;5.20;3.73;;;;;;;19.63;97.95;100671.72;256092;1100;114722;-71
2021/06/09 08:22:05;;;;;;;7.37;6.37;;;;;;;19.70;95.21;100673.84;256130;1099;114767;-71
2021/06/09 08:27:08;;;;;;;4.90;3.80;;;;;;;19.89;97.05;100677.94;255849;1098;115106;-72
2021/06/09 08:32:10;;;;;;;5.25;4.85;;;;;;;19.98;95.21;100682.64;255944;1100;114909;-69
2021/06/09 08:37:16;;;;;;;5.83;3.40;;;;;;;20.20;92.00;100676.48;256735;1098;114639;-72
2021/06/09 08:42:32;;;;;;;3.83;3.53;;;;;;;20.28;95.07;100678.59;257257;1093;114640;-70
2021/06/09 08:47:36;;;;;;;3.75;3.45;;;;;;;20.30;88.12;100676.64;257585;1098;114913;-71
2021/06/09 08:52:45;;;;;;;;;;;;;;;20.29;89.64;100674.06;256633;1098;114737;-74
2021/06/09 08:57:52;;;;;;;10.58;9.70;;;;;;;20.39;92.04;100680.48;257561;1099;103097;-74
2021/06/09 09:03:01;;;;;;;7.13;5.53;;;;;;;20.68;89.63;100674.64;257362;1100;114996;-71
2021/06/09 09:08:05;;;;;;;4.90;4.33;;;;;;;20.82;81.72;100677.16;255338;1100;115172;-71
2021/06/09 09:13:11;;;;;;;4.73;4.25;;;;;;;20.94;81.78;100679.88;257003;1098;114791;-72
2021/06/09 09:18:16;;;;;;;4.88;3.23;;;;;;;21.09;72.94;100670.52;257168;1100;114467;-74
2021/06/09 09:23:29;;;;;;;4.45;3.98;;;;;;;21.16;74.36;100679.05;256667;1099;114452;-73
2021/06/09 09:28:33;;;;;;;6.43;4.80;;;;;;;21.17;71.01;100676.20;256771;1100;114827;-72
2021/06/09 09:33:37;;;;;;;4.53;4.13;;;;;;;21.21;71.57;100667.83;257899;1099;114868;-71
2021/06/09 09:38:40;;;;;;;3.58;3.23;;;;;;;21.45;70.06;100670.40;259140;1100;114430;-71
2021/06/09 09:43:56;;;;;;;4.08;2.85;;;;;;;21.65;62.44;100671.48;257625;1100;115400;-74
2021/06/09 09:49:05;;;;;;;3.08;2.70;;;;;;;21.46;57.53;100664.84;257044;1098;114292;-71
2021/06/09 09:54:08;;;;;;;5.33;2.55;;;;;;;21.78;58.40;100674.91;256755;1099;115360;-72
2021/06/09 09:59:12;;;;;;;3.67;3.43;;;;;;;21.65;66.04;100669.66;258577;1098;114946;-72
2021/06/09 10:04:18;;;;;;;4.25;2.73;;;;;;;21.49;65.70;100670.03;258771;1099;114487;-71
2021/06/09 10:09:28;;;;;;;3.90;3.60;;;;;;;21.44;64.63;100672.23;259494;1096;113430;-71
2021/06/09 10:14:47;;;;;;;4.20;3.77;;;;;;;21.53;63.50;100672.47;256676;1098;115491;-71
2021/06/09 10:19:56;;;;;;;3.40;3.20;;;;;;;21.50;63.39;100671.72;257098;1098;114844;-71
2021/06/09 10:24:59;;;;;;;4.20;3.55;;;;;;;21.64;65.59;100664.33;257480;1100;114658;-70
2021/06/09 10:30:20;;;;;;;4.48;4.08;;;;;;;22.21;65.99;100669.57;257655;1098;114832;-72
2021/06/09 10:35:27;;;;;;;4.60;4.03;;;;;;;22.48;62.73;100662.83;258025;1099;115448;-71
2021/06/09 10:40:31;;;;;;;4.03;3.60;;;;;;;22.85;63.07;100660.48;258279;1100;114959;-69
2021/06/09 10:45:36;;;;;;;4.35;4.03;;;;;;;23.11;62.85;100651.02;256861;1098;114460;-71
2021/06/09 10:50:42;;;;;;;4.08;3.78;;;;;;;23.15;60.13;100649.73;256345;1098;114945;-70
2021/06/09 10:55:45;;;;;;;5.25;4.73;;;;;;;23.01;58.88;100650.97;255852;1100;114630;-72
2021/06/09 11:00:47;;;;;;;4.40;4.10;;;;;;;23.51;59.88;100647.44;256115;1099;115159;-71
2021/06/09 11:05:50;;;;;;;4.60;4.20;;;;;;;23.06;58.92;100641.39;256097;1099;114508;-71
2021/06/09 11:10:53;;;;;;;5.23;4.23;;;;;;;22.79;59.30;100641.12;255883;1100;114778;-71
2021/06/09 11:16:11;;;;;;;5.27;4.10;;;;;;;23.26;58.17;100632.48;255739;1100;114527;-71
2021/06/09 11:21:22;;;;;;;8.00;5.68;;;;;;;23.71;60.33;100638.31;256697;1099;114829;-72
2021/06/09 11:26:30;;;;;;;123.73;35.60;;;;;;;23.89;59.91;100640.35;256252;1099;114641;-71
2021/06/09 11:31:32;;;;;;;180.28;54.65;;;;;;;24.67;57.04;100623.11;256110;1098;115035;-69
2021/06/09 11:36:41;;;;;;;5.40;4.48;;;;;;;24.93;53.24;100609.69;256140;1099;114962;-73
2021/06/09 11:41:45;;;;;;;165.38;50.60;;;;;;;25.38;54.29;100615.36;256724;1099;114794;-72
2021/06/09 11:46:47;;;;;;;11.73;5.65;;;;;;;25.56;51.42;100599.02;255678;1100;115412;-72
2021/06/09 11:52:01;;;;;;;14.73;7.90;;;;;;;25.15;53.19;100599.39;255727;1098;114732;-70
2021/06/09 11:57:26;;;;;;;;;;;;;;;25.13;56.47;100588.61;255779;1098;114711;-71
2021/06/09 12:02:28;;;;;;;7.45;4.43;;;;;;;24.97;53.09;100592.00;256251;1100;103412;-73
2021/06/09 12:07:33;;;;;;;6.83;4.20;;;;;;;25.02;53.47;100593.44;256966;1098;114985;-71
2021/06/09 12:12:38;;;;;;;4.58;4.18;;;;;;;24.01;56.25;100583.91;256789;1099;114759;-73
2021/06/09 12:17:43;;;;;;;4.73;4.27;;;;;;;24.75;51.71;100576.91;257205;1098;114901;-72
2021/06/09 12:22:49;;;;;;;6.47;4.13;;;;;;;23.64;53.97;100573.73;257144;1098;114554;-75
2021/06/09 12:28:10;;;;;;;6.18;3.78;;;;;;;24.25;51.56;100564.38;257323;1100;115086;-70
2021/06/09 12:33:12;;;;;;;4.17;3.77;;;;;;;24.54;51.54;100563.45;256701;1100;114494;-72
2021/06/09 12:38:15;;;;;;;6.70;4.00;;;;;;;24.13;52.19;100557.38;255914;1098;115070;-72
2021/06/09 12:43:18;;;;;;;4.53;4.15;;;;;;;24.06;54.13;100553.53;256448;1100;114669;-71
2021/06/09 12:48:21;;;;;;;4.10;3.80;;;;;;;23.81;53.60;100553.10;257348;1099;115233;-71
2021/06/09 12:53:29;;;;;;;6.73;3.95;;;;;;;23.58;55.46;100542.50;257205;1098;114724;-73
2021/06/09 12:58:32;;;;;;;4.83;4.28;;;;;;;23.70;56.67;100535.90;256776;1099;114380;-74
2021/06/09 13:03:43;;;;;;;6.45;4.80;;;;;;;23.56;58.74;100536.33;255757;1100;114511;-75
2021/06/09 13:08:50;;;;;;;5.25;4.85;;;;;;;23.99;58.58;100515.16;257129;1100;114422;-71
2021/06/09 13:13:56;;;;;;;5.15;4.75;;;;;;;24.07;59.60;100511.69;256712;1097;114636;-69
2021/06/09 13:19:03;;;;;;;5.33;4.83;;;;;;;24.14;55.79;100518.27;255866;1098;114448;-70
2021/06/09 13:24:29;;;;;;;5.63;5.23;;;;;;;24.18;56.00;100508.78;256057;1098;114568;-71
2021/06/09 13:29:44;;;;;;;6.10;4.00;;;;;;;24.40;56.15;100504.86;256120;1099;114852;-71
2021/06/09 13:34:55;;;;;;;7.23;5.48;;;;;;;24.60;55.53;100502.89;256538;1099;114801;-75
2021/06/09 13:40:06;;;;;;;7.60;5.08;;;;;;;24.59;57.17;100495.76;256711;1098;114539;-71
2021/06/09 13:45:21;;;;;;;6.53;5.83;;;;;;;24.68;55.31;100487.69;256737;1100;114728;-70
2021/06/09 13:50:24;;;;;;;5.48;4.98;;;;;;;24.91;53.87;100482.71;257407;1099;114299;-71
2021/06/09 13:55:26;;;;;;;5.55;5.10;;;;;;;24.75;53.88;100483.34;258991;1099;114546;-74
2021/06/09 14:00:35;;;;;;;5.10;4.60;;;;;;;24.80;53.26;100481.05;257373;1100;114403;-71
2021/06/09 14:05:37;;;;;;;5.83;5.33;;;;;;;24.82;53.80;100479.01;256531;1100;114933;-71
2021/06/09 14:10:46;;;;;;;8.83;5.28;;;;;;;24.47;54.25;100470.56;257363;1099;114874;-78
2021/06/09 14:15:59;;;;;;;5.85;5.35;;;;;;;24.38;55.82;100465.16;257973;1100;114749;-70
2021/06/09 14:26:14;;;;;;;6.43;5.93;;;;;;;24.65;55.33;100457.00;257713;1100;114984;-72
2021/06/09 14:31:18;;;;;;;5.93;5.53;;;;;;;24.45;55.62;100456.23;256941;1098;114377;-70
2021/06/09 14:42:24;;;;;;;6.30;5.75;;;;;;;24.60;54.71;100436.66;258158;1098;103095;-69
2021/06/09 14:52:39;;;;;;;5.73;5.33;;;;;;;24.30;55.78;100441.38;257859;1098;114809;-71
2021/06/09 14:57:43;;;;;;;6.08;5.58;;;;;;;24.17;57.67;100439.86;257610;1098;114709;-71
2021/06/09 15:02:49;;;;;;;6.25;5.80;;;;;;;24.57;54.58;100437.81;256864;1100;114691;-75
2021/06/09 15:07:56;;;;;;;6.30;5.38;;;;;;;24.66;51.39;100453.30;257987;1098;114473;-71
2021/06/09 15:13:02;;;;;;;6.45;5.93;;;;;;;24.57;52.35;100454.16;257373;1098;115623;-71
2021/06/09 15:18:10;;;;;;;6.28;5.63;;;;;;;24.83;53.13;100445.30;256977;1098;114703;-71
2021/06/09 15:23:12;;;;;;;6.73;5.40;;;;;;;25.08;53.56;100446.41;257293;1098;114797;-70
2021/06/09 15:28:15;;;;;;;5.93;5.45;;;;;;;25.41;52.85;100451.36;256420;1098;114475;-71
2021/06/09 15:33:19;;;;;;;5.73;5.33;;;;;;;26.06;49.93;100450.14;257101;1098;114698;-74
2021/06/09 15:38:26;;;;;;;6.73;6.10;;;;;;;26.65;50.86;100449.41;256653;1098;115253;-71
2021/06/09 15:43:35;;;;;;;7.97;7.00;;;;;;;26.69;49.43;100445.34;257150;1100;114508;-72
2021/06/09 15:48:37;;;;;;;6.23;5.73;;;;;;;25.67;51.18;100453.27;257799;1099;114745;-71
2021/06/09 15:53:39;;;;;;;6.60;6.07;;;;;;;24.22;54.62;100450.31;256875;1098;114468;-70
2021/06/09 15:58:44;;;;;;;6.35;5.45;;;;;;;24.66;54.00;100447.84;258549;1098;114251;-73
2021/06/09 16:03:47;;;;;;;6.40;5.83;;;;;;;24.76;53.13;100447.79;256201;1099;115189;-73
2021/06/09 16:08:49;;;;;;;5.90;5.43;;;;;;;24.71;54.29;100444.64;258365;1098;114489;-71
2021/06/09 16:13:52;;;;;;;6.63;6.10;;;;;;;24.45;55.25;100445.33;257106;1099;114808;-71
2021/06/09 16:18:54;;;;;;;8.80;6.63;;;;;;;24.04;55.47;100444.78;256542;1099;114628;-71
2021/06/09 16:24:08;;;;;;;5.55;5.10;;;;;;;24.03;55.72;100440.33;256482;1098;114807;-76
2021/06/09 16:29:14;;;;;;;5.07;4.63;;;;;;;23.86;54.13;100445.49;257128;1099;114637;-71
2021/06/09 16:34:16;;;;;;;8.03;4.73;;;;;;;23.51;52.72;100451.58;259699;1098;114482;-72
2021/06/09 16:39:19;;;;;;;4.90;4.50;;;;;;;23.55;52.78;100447.55;258270;1098;114364;-70
2021/06/09 16:44:21;;;;;;;4.68;4.20;;;;;;;23.68;53.20;100447.25;256411;1099;114576;-70
2021/06/09 16:49:23;;;;;;;4.13;3.63;;;;;;;23.79;51.56;100449.80;256432;1100;114549;-70
2021/06/09 16:59:41;;;;;;;4.83;4.43;;;;;;;23.45;53.25;100458.44;259964;1098;114930;-72
2021/06/09 17:04:43;;;;;;;4.73;3.88;;;;;;;23.31;54.35;100469.75;257074;1100;114566;-71
2021/06/09 17:09:45;;;;;;;3.70;3.37;;;;;;;23.29;54.33;100469.89;256116;1098;115179;-72
2021/06/09 17:14:48;;;;;;;6.70;3.08;;;;;;;23.31;54.28;100467.91;257449;1099;114505;-73
2021/06/09 17:19:51;;;;;;;6.33;4.43;;;;;;;23.26;53.12;100475.61;256654;1098;114699;-71
2021/06/09 17:24:53;;;;;;;4.73;2.58;;;;;;;23.14;51.89;100476.72;256163;1098;114692;-70
2021/06/09 17:30:01;;;;;;;2.65;2.35;;;;;;;23.06;51.76;100475.56;257377;1099;114597;-75
2021/06/09 17:35:12;;;;;;;3.95;2.65;;;;;;;23.02;51.75;100474.14;260074;1097;114878;-75
2021/06/09 17:40:21;;;;;;;7.77;7.07;;;;;;;22.91;51.55;100479.67;259232;1099;114041;-71
2021/06/09 17:45:26;;;;;;;4.70;2.40;;;;;;;22.81;51.33;100481.52;257567;1100;114292;-72
2021/06/09 17:50:31;;;;;;;7.80;6.95;;;;;;;22.73;51.46;100480.36;257144;1098;114685;-74
2021/06/09 17:55:38;;;;;;;2.98;2.10;;;;;;;22.73;51.78;100483.08;256342;1098;114537;-70
2021/06/09 18:00:52;;;;;;;2.83;1.73;;;;;;;22.64;51.77;100478.46;256486;1098;115596;-71
2021/06/09 18:05:56;;;;;;;2.60;2.40;;;;;;;22.57;52.03;100480.01;257728;1097;115141;-71
2021/06/09 18:11:00;;;;;;;3.50;1.95;;;;;;;22.46;51.00;100483.68;256078;1099;114945;-71
2021/06/09 18:21:09;;;;;;;2.20;2.03;;;;;;;22.31;51.08;100488.59;257599;1100;114517;-73
2021/06/09 18:26:27;;;;;;;2.73;1.90;;;;;;;22.25;51.11;100494.58;258100;1097;114546;-71
2021/06/09 18:31:30;;;;;;;4.48;2.05;;;;;;;22.08;50.81;100496.90;257438;1099;115183;-73
2021/06/09 18:36:33;;;;;;;3.45;2.80;;;;;;;22.01;51.84;100490.28;257066;1098;114535;-73
2021/06/09 18:41:35;;;;;;;5.60;2.43;;;;;;;21.87;51.91;100496.92;256673;1100;115163;-70
2021/06/09 18:46:40;;;;;;;3.95;2.55;;;;;;;21.84;52.16;100499.89;258722;1098;114778;-71
2021/06/09 18:51:46;;;;;;;4.65;2.23;;;;;;;21.79;52.98;100502.14;257595;1098;114969;-72
2021/06/09 18:56:49;;;;;;;9.08;2.73;;;;;;;21.63;52.92;100502.60;256754;1098;114465;-75
2021/06/09 19:01:53;;;;;;;5.05;2.45;;;;;;;21.42;53.68;100510.66;257517;1098;114564;-73
2021/06/09 19:06:58;;;;;;;5.60;4.80;;;;;;;21.40;54.09;100518.92;257375;1097;114778;-71
2021/06/09 19:12:04;;;;;;;6.25;2.33;;;;;;;21.28;53.93;100522.67;257277;1098;114543;-74
2021/06/09 19:17:16;;;;;;;4.27;2.53;;;;;;;21.23;54.78;100514.04;256635;1099;114796;-72
2021/06/09 19:22:18;;;;;;;3.00;2.25;;;;;;;21.17;54.86;100518.14;257662;1099;115073;-71
2021/06/09 19:27:23;;;;;;;4.20;2.00;;;;;;;21.05;54.89;100525.43;257721;1097;114487;-70
2021/06/09 19:32:25;;;;;;;4.78;2.60;;;;;;;20.91;55.36;100534.67;256111;1099;114632;-72
2021/06/09 19:37:28;;;;;;;7.73;3.13;;;;;;;20.84;55.61;100533.45;257720;1100;114703;-73
2021/06/09 19:42:32;;;;;;;8.85;3.23;;;;;;;20.63;57.01;100539.59;256405;1100;115164;-74
2021/06/09 19:47:34;;;;;;;;;;;;;;;20.41;58.46;100537.74;257716;1099;114687;-74
2021/06/09 19:52:37;;;;;;;3.58;1.83;;;;;;;20.17;58.92;100546.80;258529;1098;103181;-72
2021/06/09 19:57:41;;;;;;;4.80;2.60;;;;;;;19.91;61.45;100551.55;257262;1098;114448;-62
2021/06/09 20:02:44;;;;;;;3.83;2.55;;;;;;;19.95;59.46;100553.03;256617;1098;114488;-71
2021/06/09 20:07:46;;;;;;;4.83;2.68;;;;;;;19.74;61.46;100555.48;258207;1100;114420;-72
2021/06/09 20:12:54;;;;;;;5.10;2.20;;;;;;;19.48;63.36;100555.63;255806;1100;114917;-72
2021/06/09 20:18:05;;;;;;;3.45;2.18;;;;;;;19.42;65.18;100561.50;257140;1100;114542;-72
2021/06/09 20:23:15;;;;;;;4.97;2.57;;;;;;;19.22;66.74;100558.45;256431;1099;115819;-71
2021/06/09 20:28:21;;;;;;;5.55;2.23;;;;;;;19.02;67.44;100559.90;257536;1100;114494;-73
2021/06/09 20:33:28;;;;;;;5.50;3.28;;;;;;;19.16;66.67;100558.02;256501;1099;114436;-72
2021/06/09 20:38:33;;;;;;;3.53;2.48;;;;;;;19.04;67.27;100563.36;259114;1100;114354;-72
2021/06/09 20:43:39;;;;;;;4.08;2.58;;;;;;;18.99;66.44;100564.66;257419;1098;114927;-73
2021/06/09 20:48:45;;;;;;;3.85;2.45;;;;;;;19.08;65.04;100558.59;256523;1100;114970;-72
2021/06/09 20:53:51;;;;;;;8.53;2.67;;;;;;;19.10;64.89;100564.77;257502;1100;114505;-71
2021/06/09 20:58:54;;;;;;;7.70;5.10;;;;;;;19.21;63.70;100562.13;255920;1100;114637;-70
2021/06/09 21:04:00;;;;;;;3.90;2.63;;;;;;;19.36;63.14;100573.63;256746;1099;114629;-73
2021/06/09 21:09:09;;;;;;;5.90;2.70;;;;;;;19.31;63.46;100572.27;257925;1099;114475;-73
2021/06/09 21:14:16;;;;;;;5.03;2.53;;;;;;;19.19;63.63;100577.58;256564;1099;114528;-73
2021/06/09 21:19:21;;;;;;;2.48;2.28;;;;;;;19.09;64.49;100587.34;256624;1098;114716;-72
2021/06/09 21:24:27;;;;;;;3.60;2.45;;;;;;;19.04;65.71;100579.57;257335;1098;114502;-71
2021/06/09 21:29:29;;;;;;;4.28;2.58;;;;;;;19.02;65.92;100575.27;257766;1098;114747;-71
2021/06/09 21:34:33;;;;;;;5.35;3.40;;;;;;;18.87;66.77;100578.06;256207;1099;115326;-77
2021/06/09 21:39:36;;;;;;;4.98;2.70;;;;;;;18.88;67.05;100578.91;256121;1099;114752;-71
2021/06/09 21:44:39;;;;;;;4.50;2.98;;;;;;;18.77;67.80;100576.98;257034;1097;115170;-71
2021/06/09 21:49:41;;;;;;;4.85;2.60;;;;;;;18.82;68.31;100588.31;256953;1098;115155;-72
2021/06/09 21:54:43;;;;;;;3.55;2.58;;;;;;;18.70;69.05;100595.47;257372;1099;114914;-71
2021/06/09 21:59:50;;;;;;;2.77;2.57;;;;;;;18.58;69.19;100586.41;256330;1099;114651;-72
2021/06/09 22:04:59;;;;;;;4.98;2.93;;;;;;;18.58;69.80;100589.11;257857;1099;114772;-70
2021/06/09 22:10:07;;;;;;;4.85;3.00;;;;;;;18.51;70.88;100585.11;257264;1098;115045;-70
2021/06/09 22:15:10;;;;;;;5.38;2.75;;;;;;;18.42;71.44;100588.44;256990;1099;114516;-71
2021/06/09 22:20:17;;;;;;;3.07;2.53;;;;;;;18.39;71.06;100583.28;258902;1098;114698;-72
2021/06/09 22:25:28;;;;;;;2.85;2.60;;;;;;;18.27;71.86;100585.84;257370;1100;114576;-74
2021/06/09 22:30:35;;;;;;;4.40;2.98;;;;;;;18.14;72.05;100575.06;258353;1100;114584;-71
2021/06/09 22:35:37;;;;;;;5.60;3.60;;;;;;;18.09;72.57;100576.34;256728;1099;114460;-70
2021/06/09 22:40:39;;;;;;;5.80;3.30;;;;;;;18.02;72.92;100577.72;258211;1099;114427;-70
2021/06/09 22:45:42;;;;;;;5.48;2.48;;;;;;;18.15;72.46;100570.52;258478;1098;114934;-71
2021/06/09 22:50:52;;;;;;;3.30;2.70;;;;;;;17.99;73.24;100576.11;257355;1100;114667;-72
2021/06/09 22:55:54;;;;;;;5.58;2.70;;;;;;;17.94;74.54;100579.08;257130;1100;114837;-70
2021/06/09 23:00:56;;;;;;;3.65;2.70;;;;;;;17.87;74.32;100566.13;256913;1099;114516;-70
2021/06/09 23:05:58;;;;;;;3.73;2.53;;;;;;;17.78;75.48;100578.38;256568;1098;114913;-72
2021/06/09 23:11:03;;;;;;;4.33;3.00;;;;;;;17.50;77.30;100572.14;256382;1099;114454;-72
2021/06/09 23:16:06;;;;;;;8.55;3.60;;;;;;;17.39;77.82;100572.84;256054;1098;114702;-70
2021/06/09 23:21:08;;;;;;;4.27;2.40;;;;;;;17.55;78.01;100575.39;257146;1100;114492;-71
2021/06/09 23:26:12;;;;;;;7.23;2.80;;;;;;;17.46;78.70;100573.33;257498;1097;114678;-69
2021/06/09 23:31:15;;;;;;;5.63;2.40;;;;;;;17.38;79.25;100578.34;257349;1099;114832;-71
2021/06/09 23:36:19;;;;;;;3.23;2.53;;;;;;;17.28;79.63;100581.63;256924;1100;114583;-72
2021/06/09 23:41:24;;;;;;;3.58;3.28;;;;;;;17.41;78.49;100580.86;257326;1098;114521;-70
2021/06/09 23:46:26;;;;;;;4.20;2.10;;;;;;;17.50;76.99;100588.31;256524;1100;114444;-71
2021/06/09 23:56:53;;;;;;;3.05;1.90;;;;;;;17.62;75.97;100595.58;258282;1098;114654;-71
